Avon, North Carolina
Current Conditions -  °F | °C
As of 2:51 PM on Sunday 23 Nov 2014 (Local Time) from KHSE Reporting Station
Light Rain Light Rain  
Wind Chill: 17°   Ceiling: 12000
Heat Index: 17°   Visibility: 8mi
Dew Point: 16°   Wind: 17mph
Humidity: 90%   Direction: 160°SSE
Pressure: 30.13"   Gusts: 24mph
Location:  35.35°N, 75.51°W
Report Text: KHSE 231951Z AUTO 16015G21KT 8SM -RA BKN120 17/16 A3013 RMK AO2 SLP204 P0003 T01720156 TSNO
Loading
Personal Weather Stations






























Interactive Weather Map New forecast layout! Learn more

10-Day Weather Forecast

Advertisements
Track Severe Weather on mobile